sensor_id;sensor_type;location;lat;lon;timestamp;pressure;altitude;pressure_sealevel;temperature;humidity
49835;BME280;35729;52.090;13.162;2023-02-24T00:02:20;100488.19;;;5.88;100.00
49835;BME280;35729;52.090;13.162;2023-02-24T00:04:49;100489.03;;;5.87;100.00
49835;BME280;35729;52.090;13.162;2023-02-24T00:07:18;100481.25;;;5.86;100.00
49835;BME280;35729;52.090;13.162;2023-02-24T00:09:50;100483.03;;;5.84;100.00
49835;BME280;35729;52.090;13.162;2023-02-24T00:12:18;100482.13;;;5.85;100.00
49835;BME280;35729;52.090;13.162;2023-02-24T00:14:49;100475.19;;;5.85;100.00
49835;BME280;35729;52.090;13.162;2023-02-24T00:17:17;100483.00;;;5.82;100.00
49835;BME280;35729;52.090;13.162;2023-02-24T00:19:48;100473.50;;;5.81;100.00
49835;BME280;35729;52.090;13.162;2023-02-24T00:22:23;100478.69;;;5.80;100.00
49835;BME280;35729;52.090;13.162;2023-02-24T00:25:00;100480.44;;;5.79;100.00
49835;BME280;35729;52.090;13.162;2023-02-24T00:27:29;100473.50;;;5.78;100.00
49835;BME280;35729;52.090;13.162;2023-02-24T00:29:57;100469.19;;;5.76;100.00
49835;BME280;35729;52.090;13.162;2023-02-24T00:32:26;100468.31;;;5.75;100.00
49835;BME280;35729;52.090;13.162;2023-02-24T00:34:54;100467.44;;;5.73;100.00
49835;BME280;35729;52.090;13.162;2023-02-24T00:37:23;100464.84;;;5.73;100.00
49835;BME280;35729;52.090;13.162;2023-02-24T00:39:51;100473.53;;;5.72;100.00
49835;BME280;35729;52.090;13.162;2023-02-24T00:42:25;100470.09;;;5.70;100.00
49835;BME280;35729;52.090;13.162;2023-02-24T00:44:54;100472.69;;;5.68;100.00
49835;BME280;35729;52.090;13.162;2023-02-24T00:47:22;100470.97;;;5.69;100.00
49835;BME280;35729;52.090;13.162;2023-02-24T00:49:52;100472.69;;;5.68;100.00
49835;BME280;35729;52.090;13.162;2023-02-24T00:52:21;100461.41;;;5.68;100.00
49835;BME280;35729;52.090;13.162;2023-02-24T00:54:52;100459.66;;;5.68;100.00
49835;BME280;35729;52.090;13.162;2023-02-24T00:57:20;100453.59;;;5.68;100.00
49835;BME280;35729;52.090;13.162;2023-02-24T00:59:51;100458.81;;;5.68;100.00
49835;BME280;35729;52.090;13.162;2023-02-24T01:02:22;100447.53;;;5.66;100.00
49835;BME280;35729;52.090;13.162;2023-02-24T01:04:51;100447.53;;;5.66;100.00
49835;BME280;35729;52.090;13.162;2023-02-24T01:07:19;100445.81;;;5.66;100.00
49835;BME280;35729;52.090;13.162;2023-02-24T01:09:49;100438.00;;;5.65;100.00
49835;BME280;35729;52.090;13.162;2023-02-24T01:12:18;100438.88;;;5.65;100.00
49835;BME280;35729;52.090;13.162;2023-02-24T01:15:03;100435.38;;;5.65;100.00
49835;BME280;35729;52.090;13.162;2023-02-24T01:17:34;100429.34;;;5.64;100.00
49835;BME280;35729;52.090;13.162;2023-02-24T01:20:05;100438.00;;;5.63;100.00
49835;BME280;35729;52.090;13.162;2023-02-24T01:22:49;100433.66;;;5.62;100.00
49835;BME280;35729;52.090;13.162;2023-02-24T01:25:19;100420.69;;;5.59;100.00
49835;BME280;35729;52.090;13.162;2023-02-24T01:27:47;100424.16;;;5.58;100.00
49835;BME280;35729;52.090;13.162;2023-02-24T01:30:20;100421.56;;;5.58;100.00
49835;BME280;35729;52.090;13.162;2023-02-24T01:32:49;100425.91;;;5.59;100.00
49835;BME280;35729;52.090;13.162;2023-02-24T01:35:17;100422.44;;;5.57;100.00
49835;BME280;35729;52.090;13.162;2023-02-24T01:37:46;100426.81;;;5.53;100.00
49835;BME280;35729;52.090;13.162;2023-02-24T01:40:14;100426.84;;;5.44;98.50
49835;BME280;35729;52.090;13.162;2023-02-24T01:42:46;100431.22;;;5.34;93.60
49835;BME280;35729;52.090;13.162;2023-02-24T01:45:23;100417.38;;;5.29;94.11
49835;BME280;35729;52.090;13.162;2023-02-24T01:47:55;100424.38;;;5.21;93.74
49835;BME280;35729;52.090;13.162;2023-02-24T01:50:25;100426.13;;;5.14;94.44
49835;BME280;35729;52.090;13.162;2023-02-24T01:52:59;100429.59;;;5.12;94.16
49835;BME280;35729;52.090;13.162;2023-02-24T01:55:31;100431.38;;;5.05;92.48
49835;BME280;35729;52.090;13.162;2023-02-24T01:58:05;100421.00;;;4.97;91.94
49835;BME280;35729;52.090;13.162;2023-02-24T02:00:39;100426.25;;;4.89;91.99
49835;BME280;35729;52.090;13.162;2023-02-24T02:03:15;100425.41;;;4.80;92.30
49835;BME280;35729;52.090;13.162;2023-02-24T02:05:46;100439.28;;;4.76;93.46
49835;BME280;35729;52.090;13.162;2023-02-24T02:08:17;100425.44;;;4.67;93.38
49835;BME280;35729;52.090;13.162;2023-02-24T02:10:46;100432.38;;;4.61;93.03
49835;BME280;35729;52.090;13.162;2023-02-24T02:13:18;100424.59;;;4.53;91.89
49835;BME280;35729;52.090;13.162;2023-02-24T02:16:02;100421.13;;;4.45;92.25
49835;BME280;35729;52.090;13.162;2023-02-24T02:18:41;100424.63;;;4.34;92.30
49835;BME280;35729;52.090;13.162;2023-02-24T02:21:46;100420.31;;;4.30;92.32
49835;BME280;35729;52.090;13.162;2023-02-24T02:24:35;100419.44;;;4.25;92.61
49835;BME280;35729;52.090;13.162;2023-02-24T02:30:35;100415.13;;;4.15;92.89
49835;BME280;35729;52.090;13.162;2023-02-24T02:36:10;100403.00;;;4.07;94.22
49835;BME280;35729;52.090;13.162;2023-02-24T02:38:46;100408.19;;;4.03;94.37
49835;BME280;35729;52.090;13.162;2023-02-24T02:41:22;100403.88;;;3.97;93.45
49835;BME280;35729;52.090;13.162;2023-02-24T02:44:02;100396.94;;;3.99;95.46
49835;BME280;35729;52.090;13.162;2023-02-24T02:46:37;100399.56;;;3.96;95.65
49835;BME280;35729;52.090;13.162;2023-02-24T02:49:13;100399.56;;;3.93;94.01
49835;BME280;35729;52.090;13.162;2023-02-24T02:51:50;100392.63;;;3.87;94.80
49835;BME280;35729;52.090;13.162;2023-02-24T02:54:25;100403.03;;;3.84;93.61
49835;BME280;35729;52.090;13.162;2023-02-24T02:56:59;100391.78;;;3.81;94.73
49835;BME280;35729;52.090;13.162;2023-02-24T02:59:31;100392.63;;;3.77;94.92
49835;BME280;35729;52.090;13.162;2023-02-24T03:02:03;100397.81;;;3.73;94.34
49835;BME280;35729;52.090;13.162;2023-02-24T03:04:40;100399.53;;;3.71;93.62
49835;BME280;35729;52.090;13.162;2023-02-24T03:07:15;100387.44;;;3.64;94.00
49835;BME280;35729;52.090;13.162;2023-02-24T03:09:48;100401.25;;;3.52;90.39
49835;BME280;35729;52.090;13.162;2023-02-24T03:12:20;100396.06;;;3.48;91.23
49835;BME280;35729;52.090;13.162;2023-02-24T03:14:52;100390.00;;;3.42;90.87
49835;BME280;35729;52.090;13.162;2023-02-24T03:17:25;100386.53;;;3.34;89.89
49835;BME280;35729;52.090;13.162;2023-02-24T03:19:59;100396.91;;;3.33;90.48
49835;BME280;35729;52.090;13.162;2023-02-24T03:22:45;100389.97;;;3.22;88.73
49835;BME280;35729;52.090;13.162;2023-02-24T03:25:19;100382.16;;;3.16;89.41
49835;BME280;35729;52.090;13.162;2023-02-24T03:27:50;100377.81;;;3.12;86.66
49835;BME280;35729;52.090;13.162;2023-02-24T03:30:25;100396.81;;;3.06;86.01
49835;BME280;35729;52.090;13.162;2023-02-24T03:32:58;100388.16;;;3.04;88.76
49835;BME280;35729;52.090;13.162;2023-02-24T03:35:31;100386.41;;;3.00;87.33
49835;BME280;35729;52.090;13.162;2023-02-24T03:38:06;100390.69;;;2.90;84.22
49835;BME280;35729;52.090;13.162;2023-02-24T03:40:35;100395.03;;;2.88;84.94
49835;BME280;35729;52.090;13.162;2023-02-24T03:43:07;100389.81;;;2.85;83.31
49835;BME280;35729;52.090;13.162;2023-02-24T03:45:41;100391.56;;;2.85;85.65
49835;BME280;35729;52.090;13.162;2023-02-24T03:48:11;100391.56;;;2.85;86.50
49835;BME280;35729;52.090;13.162;2023-02-24T03:50:41;100388.06;;;2.83;85.35
49835;BME280;35729;52.090;13.162;2023-02-24T03:53:27;100395.84;;;2.83;85.53
49835;BME280;35729;52.090;13.162;2023-02-24T03:56:04;100389.78;;;2.77;82.96
49835;BME280;35729;52.090;13.162;2023-02-24T03:58:46;100381.13;;;2.75;85.19
49835;BME280;35729;52.090;13.162;2023-02-24T04:01:25;100387.19;;;2.74;88.93
49835;BME280;35729;52.090;13.162;2023-02-24T04:04:00;100379.38;;;2.71;88.50
49835;BME280;35729;52.090;13.162;2023-02-24T04:06:35;100381.13;;;2.69;90.04
49835;BME280;35729;52.090;13.162;2023-02-24T04:09:18;100369.00;;;2.62;85.68
49835;BME280;35729;52.090;13.162;2023-02-24T04:11:53;100366.38;;;2.57;88.20
49835;BME280;35729;52.090;13.162;2023-02-24T04:14:28;100366.38;;;2.54;88.36
49835;BME280;35729;52.090;13.162;2023-02-24T04:17:02;100362.03;;;2.52;89.28
49835;BME280;35729;52.090;13.162;2023-02-24T04:19:37;100362.00;;;2.49;88.13
49835;BME280;35729;52.090;13.162;2023-02-24T04:22:07;100358.56;;;2.47;88.31
49835;BME280;35729;52.090;13.162;2023-02-24T04:24:43;100350.75;;;2.45;89.36
49835;BME280;35729;52.090;13.162;2023-02-24T04:27:14;100348.22;;;2.47;89.75
49835;BME280;35729;52.090;13.162;2023-02-24T04:29:46;100349.91;;;2.46;89.14
49835;BME280;35729;52.090;13.162;2023-02-24T04:32:20;100341.28;;;2.44;89.12
49835;BME280;35729;52.090;13.162;2023-02-24T04:34:49;100348.19;;;2.43;88.17
49835;BME280;35729;52.090;13.162;2023-02-24T04:37:18;100343.84;;;2.41;87.41
49835;BME280;35729;52.090;13.162;2023-02-24T04:39:50;100343.00;;;2.40;88.62
49835;BME280;35729;52.090;13.162;2023-02-24T04:42:19;100346.44;;;2.42;89.38
49835;BME280;35729;52.090;13.162;2023-02-24T04:44:47;100336.97;;;2.43;88.42
49835;BME280;35729;52.090;13.162;2023-02-24T04:47:18;100345.59;;;2.40;88.08
49835;BME280;35729;52.090;13.162;2023-02-24T04:49:46;100339.56;;;2.41;85.37
49835;BME280;35729;52.090;13.162;2023-02-24T04:52:15;100336.09;;;2.42;87.35
49835;BME280;35729;52.090;13.162;2023-02-24T04:54:45;100335.22;;;2.43;87.52
49835;BME280;35729;52.090;13.162;2023-02-24T04:57:16;100328.31;;;2.41;86.59
49835;BME280;35729;52.090;13.162;2023-02-24T04:59:44;100330.91;;;2.42;86.92
49835;BME280;35729;52.090;13.162;2023-02-24T05:02:13;100332.63;;;2.43;86.90
49835;BME280;35729;52.090;13.162;2023-02-24T05:04:41;100317.97;;;2.42;87.29
49835;BME280;35729;52.090;13.162;2023-02-24T05:07:13;100317.09;;;2.43;88.17
49835;BME280;35729;52.090;13.162;2023-02-24T05:09:42;100311.06;;;2.44;87.98
49835;BME280;35729;52.090;13.162;2023-02-24T05:12:11;100308.47;;;2.44;87.14
49835;BME280;35729;52.090;13.162;2023-02-24T05:14:42;100312.81;;;2.46;86.25
49835;BME280;35729;52.090;13.162;2023-02-24T05:17:13;100309.38;;;2.47;87.55
49835;BME280;35729;52.090;13.162;2023-02-24T05:19:43;100314.53;;;2.48;87.92
49835;BME280;35729;52.090;13.162;2023-02-24T05:22:30;100308.50;;;2.49;88.52
49835;BME280;35729;52.090;13.162;2023-02-24T05:24:58;100311.97;;;2.48;87.69
49835;BME280;35729;52.090;13.162;2023-02-24T05:27:27;100304.19;;;2.50;87.55
49835;BME280;35729;52.090;13.162;2023-02-24T05:29:58;100310.22;;;2.50;88.68
49835;BME280;35729;52.090;13.162;2023-02-24T05:32:26;100305.91;;;2.51;88.30
49835;BME280;35729;52.090;13.162;2023-02-24T05:34:58;100306.78;;;2.50;88.51
49835;BME280;35729;52.090;13.162;2023-02-24T05:37:27;100298.16;;;2.51;88.29
49835;BME280;35729;52.090;13.162;2023-02-24T05:39:56;100305.91;;;2.49;86.76
49835;BME280;35729;52.090;13.162;2023-02-24T05:42:25;100301.59;;;2.47;85.70
49835;BME280;35729;52.090;13.162;2023-02-24T05:45:02;100292.94;;;2.48;88.19
49835;BME280;35729;52.090;13.162;2023-02-24T05:47:30;100282.59;;;2.48;88.19
49835;BME280;35729;52.090;13.162;2023-02-24T05:50:01;100287.75;;;2.48;86.88
49835;BME280;35729;52.090;13.162;2023-02-24T05:52:29;100283.47;;;2.47;85.94
49835;BME280;35729;52.090;13.162;2023-02-24T05:54:59;100277.41;;;2.48;88.27
49835;BME280;35729;52.090;13.162;2023-02-24T05:57:31;100273.97;;;2.49;88.93
49835;BME280;35729;52.090;13.162;2023-02-24T06:00:05;100267.91;;;2.45;86.12
49835;BME280;35729;52.090;13.162;2023-02-24T06:02:40;100271.38;;;2.47;88.78
49835;BME280;35729;52.090;13.162;2023-02-24T06:05:15;100269.63;;;2.48;87.76
49835;BME280;35729;52.090;13.162;2023-02-24T06:07:53;100261.88;;;2.48;88.04
49835;BME280;35729;52.090;13.162;2023-02-24T06:10:29;100260.16;;;2.47;85.45
49835;BME280;35729;52.090;13.162;2023-02-24T06:13:00;100257.53;;;2.45;86.76
49835;BME280;35729;52.090;13.162;2023-02-24T06:15:33;100247.19;;;2.43;85.85
49835;BME280;35729;52.090;13.162;2023-02-24T06:18:02;100247.19;;;2.42;85.76
49835;BME280;35729;52.090;13.162;2023-02-24T06:20:32;100249.78;;;2.43;85.06
49835;BME280;35729;52.090;13.162;2023-02-24T06:23:00;100248.06;;;2.44;87.03
49835;BME280;35729;52.090;13.162;2023-02-24T06:25:36;100248.06;;;2.44;85.91
49835;BME280;35729;52.090;13.162;2023-02-24T06:28:04;100243.75;;;2.44;84.91
49835;BME280;35729;52.090;13.162;2023-02-24T06:30:36;100245.47;;;2.46;86.26
49835;BME280;35729;52.090;13.162;2023-02-24T06:33:05;100241.16;;;2.46;83.85
49835;BME280;35729;52.090;13.162;2023-02-24T06:35:35;100242.88;;;2.47;84.80
49835;BME280;35729;52.090;13.162;2023-02-24T06:38:03;100236.84;;;2.48;85.56
49835;BME280;35729;52.090;13.162;2023-02-24T06:40:32;100234.28;;;2.48;84.16
49835;BME280;35729;52.090;13.162;2023-02-24T06:43:02;100242.88;;;2.49;81.62
49835;BME280;35729;52.090;13.162;2023-02-24T06:45:30;100236.00;;;2.49;85.97
49835;BME280;35729;52.090;13.162;2023-02-24T06:48:02;100236.84;;;2.48;81.29
49835;BME280;35729;52.090;13.162;2023-02-24T06:50:33;100227.34;;;2.49;84.54
49835;BME280;35729;52.090;13.162;2023-02-24T06:53:02;100232.53;;;2.49;83.37
49835;BME280;35729;52.090;13.162;2023-02-24T06:55:41;100234.28;;;2.50;81.86
49835;BME280;35729;52.090;13.162;2023-02-24T06:58:15;100219.59;;;2.49;83.15
49835;BME280;35729;52.090;13.162;2023-02-24T07:00:44;100211.84;;;2.52;83.10
49835;BME280;35729;52.090;13.162;2023-02-24T07:03:24;100221.34;;;2.53;83.47
49835;BME280;35729;52.090;13.162;2023-02-24T07:06:04;100213.56;;;2.56;84.88
49835;BME280;35729;52.090;13.162;2023-02-24T07:08:45;100208.41;;;2.60;85.55
49835;BME280;35729;52.090;13.162;2023-02-24T07:11:14;100196.34;;;2.64;85.41
49835;BME280;35729;52.090;13.162;2023-02-24T07:13:45;100198.03;;;2.65;85.04
49835;BME280;35729;52.090;13.162;2023-02-24T07:16:15;100193.72;;;2.69;80.56
49835;BME280;35729;52.090;13.162;2023-02-24T07:18:46;100197.19;;;2.71;83.27
49835;BME280;35729;52.090;13.162;2023-02-24T07:21:15;100206.72;;;2.73;81.42
49835;BME280;35729;52.090;13.162;2023-02-24T07:23:45;100190.31;;;2.76;82.24
49835;BME280;35729;52.090;13.162;2023-02-24T07:26:16;100195.47;;;2.79;81.47
49835;BME280;35729;52.090;13.162;2023-02-24T07:28:47;100190.31;;;2.84;84.63
49835;BME280;35729;52.090;13.162;2023-02-24T07:31:17;100182.53;;;2.87;83.68
49835;BME280;35729;52.090;13.162;2023-02-24T07:33:52;100177.34;;;2.90;81.37
49835;BME280;35729;52.090;13.162;2023-02-24T07:36:22;100176.47;;;2.96;83.24
49835;BME280;35729;52.090;13.162;2023-02-24T07:38:55;100166.97;;;2.99;83.62
49835;BME280;35729;52.090;13.162;2023-02-24T07:41:27;100164.41;;;3.04;83.74
49835;BME280;35729;52.090;13.162;2023-02-24T07:43:55;100163.53;;;3.09;84.34
49835;BME280;35729;52.090;13.162;2023-02-24T07:46:28;100164.41;;;3.16;83.52
49835;BME280;35729;52.090;13.162;2023-02-24T07:49:00;100154.03;;;3.18;82.09
49835;BME280;35729;52.090;13.162;2023-02-24T07:51:29;100147.97;;;3.20;81.43
49835;BME280;35729;52.090;13.162;2023-02-24T07:53:59;100147.13;;;3.20;82.23
49835;BME280;35729;52.090;13.162;2023-02-24T07:56:29;100153.16;;;3.20;80.05
49835;BME280;35729;52.090;13.162;2023-02-24T07:59:02;100139.34;;;3.20;80.04
49835;BME280;35729;52.090;13.162;2023-02-24T08:01:34;100130.69;;;3.21;81.77
49835;BME280;35729;52.090;13.162;2023-02-24T08:04:07;100128.09;;;3.22;78.93
49835;BME280;35729;52.090;13.162;2023-02-24T08:06:41;100128.09;;;3.27;81.17
49835;BME280;35729;52.090;13.162;2023-02-24T08:09:14;100128.09;;;3.27;73.96
49835;BME280;35729;52.090;13.162;2023-02-24T08:12:06;100117.69;;;3.33;80.77
49835;BME280;35729;52.090;13.162;2023-02-24T08:14:34;100120.28;;;3.35;73.82
49835;BME280;35729;52.090;13.162;2023-02-24T08:17:10;100107.31;;;3.39;81.05
49835;BME280;35729;52.090;13.162;2023-02-24T08:19:48;100092.63;;;3.41;76.32
49835;BME280;35729;52.090;13.162;2023-02-24T08:22:36;100092.63;;;3.41;76.56
49835;BME280;35729;52.090;13.162;2023-02-24T08:25:09;100076.19;;;3.41;73.91
49835;BME280;35729;52.090;13.162;2023-02-24T08:27:42;100077.03;;;3.46;71.67
49835;BME280;35729;52.090;13.162;2023-02-24T08:30:12;100068.38;;;3.52;74.47
49835;BME280;35729;52.090;13.162;2023-02-24T08:32:49;100058.88;;;3.55;71.03
49835;BME280;35729;52.090;13.162;2023-02-24T08:35:25;100069.19;;;3.60;69.08
49835;BME280;35729;52.090;13.162;2023-02-24T08:37:59;100054.50;;;3.62;71.37
49835;BME280;35729;52.090;13.162;2023-02-24T08:40:30;100054.50;;;3.62;69.29
49835;BME280;35729;52.090;13.162;2023-02-24T08:43:17;100039.81;;;3.64;72.44
49835;BME280;35729;52.090;13.162;2023-02-24T08:45:57;100054.50;;;3.67;70.75
49835;BME280;35729;52.090;13.162;2023-02-24T08:48:30;100032.00;;;3.67;71.54
49835;BME280;35729;52.090;13.162;2023-02-24T08:51:11;100047.56;;;3.66;68.83
49835;BME280;35729;52.090;13.162;2023-02-24T08:53:42;100038.06;;;3.68;73.43
49835;BME280;35729;52.090;13.162;2023-02-24T08:56:13;100039.78;;;3.70;74.37
49835;BME280;35729;52.090;13.162;2023-02-24T08:58:50;100038.88;;;3.71;71.20
49835;BME280;35729;52.090;13.162;2023-02-24T09:01:23;100036.31;;;3.73;73.53
49835;BME280;35729;52.090;13.162;2023-02-24T09:03:54;100028.50;;;3.71;70.73
49835;BME280;35729;52.090;13.162;2023-02-24T09:06:35;100034.56;;;3.73;69.57
49835;BME280;35729;52.090;13.162;2023-02-24T09:09:05;100031.09;;;3.76;72.29
49835;BME280;35729;52.090;13.162;2023-02-24T09:11:48;100031.94;;;3.78;72.58
49835;BME280;35729;52.090;13.162;2023-02-24T09:14:21;100031.91;;;3.83;71.82
49835;BME280;35729;52.090;13.162;2023-02-24T09:16:51;100008.53;;;3.89;74.00
49835;BME280;35729;52.090;13.162;2023-02-24T09:19:33;100001.56;;;3.94;74.22
49835;BME280;35729;52.090;13.162;2023-02-24T09:22:31;100004.19;;;3.96;70.82
49835;BME280;35729;52.090;13.162;2023-02-24T09:24:59;100000.69;;;3.97;70.47
49835;BME280;35729;52.090;13.162;2023-02-24T09:27:40;99993.75;;;4.00;74.68
49835;BME280;35729;52.090;13.162;2023-02-24T09:30:10;99997.19;;;4.02;72.93
49835;BME280;35729;52.090;13.162;2023-02-24T09:32:58;99983.31;;;4.06;75.02
49835;BME280;35729;52.090;13.162;2023-02-24T09:35:28;99987.59;;;4.11;73.57
49835;BME280;35729;52.090;13.162;2023-02-24T09:38:03;99983.28;;;4.16;73.37
49835;BME280;35729;52.090;13.162;2023-02-24T09:40:33;99972.84;;;4.19;75.34
49835;BME280;35729;52.090;13.162;2023-02-24T09:43:16;99972.03;;;4.14;73.13
49835;BME280;35729;52.090;13.162;2023-02-24T09:45:50;99971.19;;;4.10;71.56
49835;BME280;35729;52.090;13.162;2023-02-24T09:48:28;99971.22;;;4.04;68.99
49835;BME280;35729;52.090;13.162;2023-02-24T09:50:58;99963.47;;;4.01;70.24
49835;BME280;35729;52.090;13.162;2023-02-24T09:53:34;99971.25;;;3.99;71.44
49835;BME280;35729;52.090;13.162;2023-02-24T09:56:19;99954.81;;;3.99;73.97
49835;BME280;35729;52.090;13.162;2023-02-24T09:58:56;99962.63;;;3.97;70.28
49835;BME280;35729;52.090;13.162;2023-02-24T10:01:54;99964.34;;;4.00;69.31
49835;BME280;35729;52.090;13.162;2023-02-24T10:04:39;99966.09;;;3.96;68.41
49835;BME280;35729;52.090;13.162;2023-02-24T10:07:15;99958.28;;;3.98;72.91
49835;BME280;35729;52.090;13.162;2023-02-24T10:09:51;99947.06;;;3.97;70.92
49835;BME280;35729;52.090;13.162;2023-02-24T10:12:23;99946.16;;;4.00;73.96
49835;BME280;35729;52.090;13.162;2023-02-24T10:14:57;99952.22;;;4.00;70.77
49835;BME280;35729;52.090;13.162;2023-02-24T10:17:41;99959.16;;;3.98;66.48
49835;BME280;35729;52.090;13.162;2023-02-24T10:20:17;99930.63;;;3.98;66.08
49835;BME280;35729;52.090;13.162;2023-02-24T10:22:58;99931.44;;;4.00;67.90
49835;BME280;35729;52.090;13.162;2023-02-24T10:25:42;99925.38;;;4.01;65.26
49835;BME280;35729;52.090;13.162;2023-02-24T10:28:25;99924.47;;;4.05;68.27
49835;BME280;35729;52.090;13.162;2023-02-24T10:31:08;99934.00;;;4.06;63.77
49835;BME280;35729;52.090;13.162;2023-02-24T10:33:51;99910.59;;;4.11;70.25
49835;BME280;35729;52.090;13.162;2023-02-24T10:36:23;99905.38;;;4.13;67.08
49835;BME280;35729;52.090;13.162;2023-02-24T10:39:01;99895.81;;;4.18;66.24
49835;BME280;35729;52.090;13.162;2023-02-24T10:41:48;99921.75;;;4.22;65.96
49835;BME280;35729;52.090;13.162;2023-02-24T10:44:23;99884.53;;;4.23;66.61
49835;BME280;35729;52.090;13.162;2023-02-24T10:46:59;99881.03;;;4.26;69.25
49835;BME280;35729;52.090;13.162;2023-02-24T10:49:40;99881.00;;;4.32;68.89
49835;BME280;35729;52.090;13.162;2023-02-24T10:52:22;99872.25;;;4.38;67.74
49835;BME280;35729;52.090;13.162;2023-02-24T10:55:22;99866.13;;;4.45;70.34
49835;BME280;35729;52.090;13.162;2023-02-24T10:58:13;99852.22;;;4.49;68.00
49835;BME280;35729;52.090;13.162;2023-02-24T11:00:53;99857.41;;;4.51;65.45
49835;BME280;35729;52.090;13.162;2023-02-24T11:03:48;99847.88;;;4.53;69.16
49835;BME280;35729;52.090;13.162;2023-02-24T11:06:27;99838.34;;;4.52;69.41
49835;BME280;35729;52.090;13.162;2023-02-24T11:09:15;99825.34;;;4.52;69.18
49835;BME280;35729;52.090;13.162;2023-02-24T11:11:58;99825.38;;;4.50;68.78
49835;BME280;35729;52.090;13.162;2023-02-24T11:14:49;99822.78;;;4.50;65.03
49835;BME280;35729;52.090;13.162;2023-02-24T11:17:31;99816.72;;;4.50;70.80
49835;BME280;35729;52.090;13.162;2023-02-24T11:20:03;99807.16;;;4.53;70.72
49835;BME280;35729;52.090;13.162;2023-02-24T11:22:43;99806.31;;;4.51;64.57
49835;BME280;35729;52.090;13.162;2023-02-24T11:25:23;99811.53;;;4.51;66.80
49835;BME280;35729;52.090;13.162;2023-02-24T11:27:53;99797.66;;;4.51;66.55
49835;BME280;35729;52.090;13.162;2023-02-24T11:30:34;99786.41;;;4.50;62.89
49835;BME280;35729;52.090;13.162;2023-02-24T11:33:21;99783.88;;;4.44;62.19
49835;BME280;35729;52.090;13.162;2023-02-24T11:36:01;99785.66;;;4.40;63.27
49835;BME280;35729;52.090;13.162;2023-02-24T11:38:38;99771.91;;;4.32;64.14
49835;BME280;35729;52.090;13.162;2023-02-24T11:41:15;99785.84;;;4.25;64.77
49835;BME280;35729;52.090;13.162;2023-02-24T11:43:55;99775.53;;;4.17;65.82
49835;BME280;35729;52.090;13.162;2023-02-24T11:46:33;99804.19;;;4.10;68.12
49835;BME280;35729;52.090;13.162;2023-02-24T11:49:10;99767.94;;;4.00;69.65
49835;BME280;35729;52.090;13.162;2023-02-24T11:51:45;99774.13;;;3.88;71.67
49835;BME280;35729;52.090;13.162;2023-02-24T11:54:14;99774.25;;;3.74;73.11
49835;BME280;35729;52.090;13.162;2023-02-24T11:56:45;99768.31;;;3.62;74.54
49835;BME280;35729;52.090;13.162;2023-02-24T11:59:17;99766.66;;;3.50;76.14
49835;BME280;35729;52.090;13.162;2023-02-24T12:01:55;99750.38;;;3.35;77.36
49835;BME280;35729;52.090;13.162;2023-02-24T12:04:30;99766.03;;;3.18;78.23
49835;BME280;35729;52.090;13.162;2023-02-24T12:07:04;99759.25;;;3.05;80.03
49835;BME280;35729;52.090;13.162;2023-02-24T12:09:40;99744.63;;;2.91;80.65
49835;BME280;35729;52.090;13.162;2023-02-24T12:12:17;99747.28;;;2.82;81.88
49835;BME280;35729;52.090;13.162;2023-02-24T12:14:51;99749.03;;;2.75;82.59
49835;BME280;35729;52.090;13.162;2023-02-24T12:17:30;99749.09;;;2.66;82.48
49835;BME280;35729;52.090;13.162;2023-02-24T12:20:03;99734.47;;;2.57;83.50
49835;BME280;35729;52.090;13.162;2023-02-24T12:22:43;99723.28;;;2.51;84.64
49835;BME280;35729;52.090;13.162;2023-02-24T12:25:19;99720.72;;;2.44;84.99
49835;BME280;35729;52.090;13.162;2023-02-24T12:28:02;99716.44;;;2.37;86.35
49835;BME280;35729;52.090;13.162;2023-02-24T12:30:47;99708.72;;;2.34;87.10
49835;BME280;35729;52.090;13.162;2023-02-24T12:33:48;99704.41;;;2.32;87.40
49835;BME280;35729;52.090;13.162;2023-02-24T12:36:33;99707.00;;;2.27;87.87
49835;BME280;35729;52.090;13.162;2023-02-24T12:39:11;99689.78;;;2.20;88.04
49835;BME280;35729;52.090;13.162;2023-02-24T12:41:54;99692.34;;;2.20;88.99
49835;BME280;35729;52.090;13.162;2023-02-24T12:44:34;99691.50;;;2.19;89.04
49835;BME280;35729;52.090;13.162;2023-02-24T12:47:09;99680.31;;;2.16;90.84
49835;BME280;35729;52.090;13.162;2023-02-24T12:50:05;99672.56;;;2.14;90.35
49835;BME280;35729;52.090;13.162;2023-02-24T12:52:44;99670.84;;;2.13;90.43
49835;BME280;35729;52.090;13.162;2023-02-24T12:55:20;99659.63;;;2.11;91.37
49835;BME280;35729;52.090;13.162;2023-02-24T12:57:57;99656.19;;;2.09;91.33
49835;BME280;35729;52.090;13.162;2023-02-24T13:00:34;99651.91;;;2.05;92.47
49835;BME280;35729;52.090;13.162;2023-02-24T13:03:14;99640.69;;;2.04;92.31
49835;BME280;35729;52.090;13.162;2023-02-24T13:05:53;99643.28;;;2.03;93.16
49835;BME280;35729;52.090;13.162;2023-02-24T13:08:37;99635.53;;;2.01;93.55
49835;BME280;35729;52.090;13.162;2023-02-24T13:11:12;99633.81;;;2.00;93.18
49835;BME280;35729;52.090;13.162;2023-02-24T13:13:51;99626.91;;;1.99;93.72
49835;BME280;35729;52.090;13.162;2023-02-24T13:16:27;99627.78;;;1.97;93.79
49835;BME280;35729;52.090;13.162;2023-02-24T13:19:04;99609.69;;;1.95;93.87
49835;BME280;35729;52.090;13.162;2023-02-24T13:21:35;99607.97;;;1.94;94.47
49835;BME280;35729;52.090;13.162;2023-02-24T13:24:04;99608.81;;;1.93;94.66
49835;BME280;35729;52.090;13.162;2023-02-24T13:26:33;99598.50;;;1.91;94.35
49835;BME280;35729;52.090;13.162;2023-02-24T13:29:09;99596.78;;;1.90;94.76
49835;BME280;35729;52.090;13.162;2023-02-24T13:31:40;99588.16;;;1.90;94.72
49835;BME280;35729;52.090;13.162;2023-02-24T13:34:14;99583.84;;;1.86;95.39
49835;BME280;35729;52.090;13.162;2023-02-24T13:36:58;99587.31;;;1.88;95.33
49835;BME280;35729;52.090;13.162;2023-02-24T13:39:32;99580.38;;;1.88;95.49